Time;durP1;ratioP1;P1;durP2;ratioP2;P2;SDS_P1;SDS_P2;PMS_P1;PMS_P2;Temp;Humidity;BMP_temperature;BMP_pressure;BME280_temperature;BME280_humidity;BME280_pressure;Samples;Min_cycle;Max_cycle;Signal;HPM_P1;HPM_P2
2022/06/16 00:00:39;;;;;;;7.67;2.45;;;;;;;18.28;54.25;101606.25;1748938;81;25633;-55
2022/06/16 00:03:09;;;;;;;11.40;2.83;;;;;;;18.29;54.13;101596.55;1754384;81;25881;-55
2022/06/16 00:05:39;;;;;;;12.43;4.12;;;;;;;18.34;54.33;101602.02;1750877;81;26297;-56
2022/06/16 00:08:09;;;;;;;9.63;3.47;;;;;;;18.32;54.49;101604.05;1749963;80;25764;-56
2022/06/16 00:11:16;;;;;;;10.15;2.87;;;;;;;18.31;54.73;101604.56;1749233;81;28348;-54
2022/06/16 00:13:07;;;;;;;18.80;3.25;;;;;;;18.33;54.79;101605.75;1744896;80;25867;-56
2022/06/16 00:15:35;;;;;;;6.90;2.52;;;;;;;18.33;54.84;101612.56;1753827;80;25746;-56
2022/06/16 00:18:02;;;;;;;9.63;2.37;;;;;;;18.31;55.74;101615.47;1749505;81;26051;-56
2022/06/16 00:20:29;;;;;;;10.95;2.70;;;;;;;18.24;55.73;101611.19;1750095;80;25863;-56
2022/06/16 00:22:56;;;;;;;10.72;2.30;;;;;;;18.22;55.61;101616.46;1749979;80;27514;-56
2022/06/16 00:25:22;;;;;;;7.53;2.40;;;;;;;18.18;55.57;101620.03;1749105;80;26005;-56
2022/06/16 00:27:50;;;;;;;6.50;2.62;;;;;;;18.17;55.57;101621.53;1753463;80;25799;-56
2022/06/16 00:30:17;;;;;;;5.15;2.40;;;;;;;18.13;55.49;101619.66;1721085;81;26218;-56
2022/06/16 00:32:44;;;;;;;13.45;2.12;;;;;;;18.13;55.39;101621.02;1751025;81;25723;-56
2022/06/16 00:35:13;;;;;;;9.20;2.50;;;;;;;18.14;55.29;101622.23;1751187;81;29618;-54
2022/06/16 00:37:40;;;;;;;7.62;2.45;;;;;;;18.16;55.36;101620.70;1749162;81;25755;-56
2022/06/16 00:40:10;;;;;;;11.28;4.10;;;;;;;18.15;55.29;101611.66;1754164;79;25759;-56
2022/06/16 00:42:38;;;;;;;10.10;2.70;;;;;;;18.17;55.46;101615.59;1758345;80;26443;-56
2022/06/16 00:45:44;;;;;;;10.93;2.42;;;;;;;18.17;55.63;101609.28;1760767;78;25709;-56
2022/06/16 00:48:32;;;;;;;8.58;2.92;;;;;;;18.17;55.73;101605.20;1738494;81;27502;-56
2022/06/16 00:51:10;;;;;;;13.65;3.02;;;;;;;18.15;56.09;101603.48;1742625;81;25478;-56
2022/06/16 00:53:39;;;;;;;8.23;2.15;;;;;;;18.12;56.19;101600.25;1737772;81;25925;-56
2022/06/16 00:56:11;;;;;;;9.80;2.90;;;;;;;18.09;56.29;101608.77;1743201;81;26071;-56
2022/06/16 00:58:41;;;;;;;7.87;2.00;;;;;;;18.07;58.09;101607.55;1732819;81;25789;-56
2022/06/16 01:01:10;;;;;;;13.25;2.47;;;;;;;17.92;57.60;101606.45;1729683;81;27450;-56
2022/06/16 01:06:28;;;;;;;5.25;2.25;;;;;;;17.90;57.48;101620.73;1742269;81;25826;-55
2022/06/16 01:09:00;;;;;;;5.37;2.08;;;;;;;17.89;57.44;101619.02;1750544;81;26102;-55
2022/06/16 01:14:56;;;;;;;5.95;2.00;;;;;;;17.84;57.16;101618.15;1724377;81;27474;-56
2022/06/16 01:17:53;;;;;;;;;;;;;;;17.85;58.29;101614.41;1726511;81;25782;-56
2022/06/16 01:20:38;;;;;;;6.83;1.95;;;;;;;17.81;57.47;101606.25;1736563;81;25715;-56
2022/06/16 01:23:58;;;;;;;5.08;2.02;;;;;;;17.83;57.29;101609.14;1722105;81;26119;-55
2022/06/16 01:26:46;;;;;;;9.05;1.65;;;;;;;17.86;57.18;101608.48;1750025;81;25756;-56
2022/06/16 01:29:42;;;;;;;10.30;2.52;;;;;;;17.87;56.85;101602.86;1736335;81;27436;-55
2022/06/16 01:32:29;;;;;;;7.47;2.02;;;;;;;17.88;56.76;101603.73;1719971;81;25469;-56
2022/06/16 01:35:18;;;;;;;11.45;2.60;;;;;;;17.89;56.62;101599.97;1723677;81;25453;-55
2022/06/16 01:38:08;;;;;;;6.05;1.87;;;;;;;17.88;56.47;101603.73;1736916;81;26100;-56
2022/06/16 01:40:53;;;;;;;8.08;2.30;;;;;;;17.86;56.40;101599.80;1730259;80;26089;-55
2022/06/16 01:43:35;;;;;;;7.47;2.47;;;;;;;17.86;56.44;101595.71;1732315;81;27584;-56
2022/06/16 01:46:13;;;;;;;6.95;1.98;;;;;;;17.82;56.47;101600.63;1734678;80;25970;-56
2022/06/16 01:48:45;;;;;;;5.55;2.30;;;;;;;17.81;56.56;101596.20;1755080;80;25479;-56
2022/06/16 01:51:29;;;;;;;5.97;1.95;;;;;;;17.82;56.44;101590.27;1769414;80;26077;-55
2022/06/16 01:54:19;;;;;;;8.13;1.95;;;;;;;17.81;56.40;101588.04;1757815;80;26129;-55
2022/06/16 01:57:11;;;;;;;3.52;1.87;;;;;;;17.77;56.51;101591.25;1749688;80;27651;-55
2022/06/16 01:59:52;;;;;;;12.30;2.20;;;;;;;17.74;56.73;101595.68;1765926;80;25733;-55
2022/06/16 02:02:22;;;;;;;8.53;2.52;;;;;;;17.68;57.17;101595.30;1763700;80;25652;-55
2022/06/16 02:04:57;;;;;;;7.35;2.30;;;;;;;17.67;56.90;101602.27;1759270;79;27527;-55
2022/06/16 02:07:35;;;;;;;13.32;2.58;;;;;;;17.70;56.78;101591.08;1764588;80;25834;-56
2022/06/16 02:10:15;;;;;;;8.55;2.00;;;;;;;17.73;57.10;101592.09;1753786;79;27481;-56
2022/06/16 02:12:55;;;;;;;5.22;2.05;;;;;;;17.77;57.34;101598.05;1754602;80;25844;-56
2022/06/16 02:15:45;;;;;;;9.00;2.22;;;;;;;17.78;57.47;101597.91;1766980;80;26065;-55
2022/06/16 02:18:17;;;;;;;9.75;3.25;;;;;;;17.71;57.45;101592.75;1759013;80;26052;-55
2022/06/16 02:21:13;;;;;;;17.92;2.90;;;;;;;17.68;57.37;101589.02;1775419;80;26135;-56
2022/06/16 02:23:42;;;;;;;13.48;2.77;;;;;;;17.71;57.33;101586.47;1733873;80;27489;-55
2022/06/16 02:26:09;;;;;;;12.40;2.55;;;;;;;17.72;58.11;101578.13;1754558;80;26111;-55
2022/06/16 02:28:53;;;;;;;8.63;2.45;;;;;;;17.73;58.51;101581.20;1765719;80;25731;-55
2022/06/16 02:31:42;;;;;;;9.85;2.70;;;;;;;17.74;59.02;101581.55;1753307;80;26175;-56
2022/06/16 02:34:32;;;;;;;8.25;2.10;;;;;;;17.75;59.41;101588.70;1760154;80;25467;-56
2022/06/16 02:37:31;;;;;;;6.83;2.62;;;;;;;17.71;59.80;101588.67;1780724;80;27618;-55
2022/06/16 02:40:21;;;;;;;10.15;2.30;;;;;;;17.66;59.74;101588.32;1765504;80;25934;-55
2022/06/16 02:43:21;;;;;;;13.43;2.33;;;;;;;17.67;60.90;101588.15;1767199;78;25906;-55
2022/06/16 02:46:01;;;;;;;8.13;2.20;;;;;;;17.58;62.30;101587.77;1757184;78;26322;-55
2022/06/16 02:48:34;;;;;;;7.03;2.30;;;;;;;17.52;61.45;101583.85;1708752;82;25476;-56
2022/06/16 02:51:20;;;;;;;9.08;2.33;;;;;;;17.55;61.99;101585.87;1711005;82;27498;-57
2022/06/16 02:54:24;;;;;;;8.83;2.20;;;;;;;17.53;62.17;101588.25;1710099;82;25695;-55
2022/06/16 02:57:23;;;;;;;13.03;2.52;;;;;;;17.55;61.69;101585.87;1696887;83;25744;-56
2022/06/16 02:59:55;;;;;;;10.95;2.30;;;;;;;17.58;61.46;101584.20;1696966;83;26130;-56
2022/06/16 03:02:26;;;;;;;8.13;2.35;;;;;;;17.64;61.73;101582.19;1699959;83;25850;-56
2022/06/16 03:04:57;;;;;;;8.10;2.50;;;;;;;17.71;61.55;101588.67;1697216;83;27468;-56
2022/06/16 03:07:25;;;;;;;6.45;2.30;;;;;;;17.75;61.47;101588.70;1700081;83;25629;-55
2022/06/16 03:09:54;;;;;;;3.75;2.10;;;;;;;17.79;61.38;101591.95;1697179;83;25739;-56
2022/06/16 03:12:22;;;;;;;7.17;2.00;;;;;;;17.81;61.34;101593.48;1697224;83;26090;-57
2022/06/16 03:14:51;;;;;;;10.03;2.58;;;;;;;17.86;61.43;101588.06;1697220;83;25317;-56
2022/06/16 03:17:18;;;;;;;7.15;2.25;;;;;;;17.89;61.49;101581.78;1702554;83;27484;-56
2022/06/16 03:19:47;;;;;;;10.23;2.40;;;;;;;17.93;61.46;101586.39;1697209;83;26280;-56
2022/06/16 03:22:14;;;;;;;5.17;2.37;;;;;;;17.95;61.77;101583.00;1697151;83;25545;-56
2022/06/16 03:24:42;;;;;;;6.00;2.45;;;;;;;18.00;61.60;101590.18;1696993;84;26162;-56
2022/06/16 03:27:10;;;;;;;7.58;2.40;;;;;;;18.01;61.62;101583.72;1696969;83;25454;-56
2022/06/16 03:29:40;;;;;;;5.37;2.58;;;;;;;18.05;61.46;101583.75;1702709;83;27428;-56
2022/06/16 03:32:09;;;;;;;4.17;1.90;;;;;;;18.11;61.66;101585.80;1698696;83;26908;-56
2022/06/16 03:34:36;;;;;;;10.20;2.02;;;;;;;18.05;61.78;101585.59;1693928;83;25804;-56
2022/06/16 03:37:03;;;;;;;11.10;2.37;;;;;;;17.99;62.33;101589.83;1697056;83;26110;-58
2022/06/16 03:39:32;;;;;;;9.48;3.10;;;;;;;18.00;62.12;101590.18;1696297;84;25864;-56
2022/06/16 03:41:59;;;;;;;4.65;2.08;;;;;;;18.06;62.49;101584.58;1697260;82;27429;-56
2022/06/16 03:44:26;;;;;;;6.25;2.25;;;;;;;18.13;62.20;101588.34;1697144;82;25764;-56
2022/06/16 03:46:54;;;;;;;6.20;2.60;;;;;;;18.20;62.10;101591.26;1669187;82;26145;-58
2022/06/16 03:49:23;;;;;;;10.95;2.70;;;;;;;18.26;61.91;101592.81;1649636;86;26121;-56
2022/06/16 03:51:51;;;;;;;7.45;2.52;;;;;;;18.30;61.77;101585.99;1674185;84;25757;-56
2022/06/16 03:54:22;;;;;;;7.12;2.50;;;;;;;18.39;61.51;101588.73;1716776;82;27475;-56
2022/06/16 03:56:51;;;;;;;10.65;2.60;;;;;;;18.46;61.38;101590.63;1727012;82;25822;-56
2022/06/16 03:59:21;;;;;;;14.15;2.80;;;;;;;18.51;61.40;101587.92;1739863;82;25674;-56
2022/06/16 04:01:49;;;;;;;7.00;2.85;;;;;;;18.54;61.13;101590.28;1721837;82;26316;-56
2022/06/16 04:04:17;;;;;;;12.37;3.55;;;;;;;18.59;61.54;101587.92;1722716;82;25489;-56
2022/06/16 04:06:46;;;;;;;11.83;2.35;;;;;;;18.63;61.19;101588.44;1718923;82;27466;-56
2022/06/16 04:09:13;;;;;;;8.58;3.12;;;;;;;18.67;60.99;101592.02;1735224;82;25826;-56
2022/06/16 04:11:42;;;;;;;12.05;3.62;;;;;;;18.72;60.92;101588.78;1721313;82;25745;-57
2022/06/16 04:14:13;;;;;;;13.03;3.85;;;;;;;18.80;60.60;101587.41;1737613;82;26828;-56
2022/06/16 04:16:52;;;;;;;16.45;3.70;;;;;;;18.86;60.15;101588.61;1726332;82;25702;-56
2022/06/16 04:20:11;;;;;;;17.73;6.67;;;;;;;18.93;59.85;101586.92;1663845;84;28177;-56
2022/06/16 04:22:05;;;;;;;16.57;4.35;;;;;;;18.95;58.53;101587.61;1700150;82;25815;-56
2022/06/16 04:24:36;;;;;;;16.05;4.45;;;;;;;18.92;57.98;101586.05;1722599;82;25769;-56
2022/06/16 04:27:04;;;;;;;18.48;3.95;;;;;;;18.97;57.90;101583.34;1724420;82;26335;-56
2022/06/16 04:29:31;;;;;;;19.98;4.20;;;;;;;18.97;57.40;101588.27;1735480;81;25862;-56
2022/06/16 04:31:59;;;;;;;21.48;3.58;;;;;;;18.97;57.27;101590.16;1731246;82;28139;-56
2022/06/16 04:34:27;;;;;;;13.10;3.62;;;;;;;18.96;56.38;101588.45;1721848;82;25798;-56
2022/06/16 04:36:55;;;;;;;8.68;4.55;;;;;;;18.95;56.40;101592.20;1721001;82;25779;-56
2022/06/16 04:39:23;;;;;;;18.65;3.58;;;;;;;18.92;56.26;101587.42;1728807;79;26186;-56
2022/06/16 04:41:52;;;;;;;22.35;4.30;;;;;;;18.96;56.12;101589.29;1764363;79;26023;-56
2022/06/16 04:44:20;;;;;;;14.13;4.72;;;;;;;18.99;55.96;101586.23;1772260;80;27435;-56
2022/06/16 04:46:47;;;;;;;11.90;4.37;;;;;;;19.00;55.66;101585.20;1776416;80;25740;-56
2022/06/16 04:49:15;;;;;;;24.47;4.72;;;;;;;18.94;55.55;101587.27;1772005;80;25759;-56
2022/06/16 04:51:44;;;;;;;12.18;3.27;;;;;;;18.91;55.67;101590.30;1776927;80;26185;-56
2022/06/16 04:54:12;;;;;;;195.15;10.75;;;;;;;18.91;55.01;101591.16;1776770;80;25758;-56
2022/06/16 04:56:44;;;;;;;19.57;3.50;;;;;;;18.94;54.69;101589.99;1754287;80;27462;-56
2022/06/16 04:59:13;;;;;;;15.13;3.72;;;;;;;18.94;54.61;101588.63;1712848;80;25916;-56
2022/06/16 05:01:45;;;;;;;18.40;3.25;;;;;;;18.86;53.96;101589.45;1755769;80;25815;-56
2022/06/16 05:04:29;;;;;;;20.92;3.90;;;;;;;18.78;53.89;101586.20;1704587;83;27092;-56
2022/06/16 05:07:11;;;;;;;11.18;2.87;;;;;;;18.80;54.16;101581.96;1681804;82;25858;-56
2022/06/16 05:09:56;;;;;;;8.78;3.87;;;;;;;18.87;54.15;101584.86;1754397;80;27691;-56
2022/06/16 05:12:27;;;;;;;17.05;4.80;;;;;;;18.86;53.49;101579.91;1756240;80;25960;-57
2022/06/16 05:14:58;;;;;;;11.25;2.83;;;;;;;18.85;53.48;101580.08;1707360;83;25812;-56
2022/06/16 05:17:27;;;;;;;16.10;3.15;;;;;;;18.88;53.28;101582.45;1705766;82;26115;-56
2022/06/16 05:19:58;;;;;;;9.18;3.25;;;;;;;18.90;53.20;101588.09;1693057;82;26003;-56
2022/06/16 05:22:44;;;;;;;9.30;3.50;;;;;;;18.90;52.99;101588.09;1713714;82;29593;-56
2022/06/16 05:25:16;;;;;;;16.62;3.85;;;;;;;18.89;53.02;101590.97;1706432;82;25973;-56
2022/06/16 05:27:56;;;;;;;5.37;2.58;;;;;;;18.91;52.78;101591.66;1707945;83;25768;-56
2022/06/16 05:30:25;;;;;;;12.35;3.33;;;;;;;18.85;52.45;101590.47;1699567;82;26210;-56
2022/06/16 05:33:06;;;;;;;15.95;3.87;;;;;;;18.84;52.34;101590.64;1679176;82;25623;-57
2022/06/16 05:35:41;;;;;;;13.53;3.45;;;;;;;18.85;52.53;101596.44;1671509;82;27708;-56
2022/06/16 05:38:09;;;;;;;11.60;3.60;;;;;;;18.83;52.65;101591.66;1705541;82;25775;-56
2022/06/16 05:40:38;;;;;;;13.15;3.60;;;;;;;18.84;52.84;101596.09;1699443;83;25793;-57
2022/06/16 05:43:07;;;;;;;14.55;3.52;;;;;;;18.83;52.84;101599.31;1694537;83;26138;-57
2022/06/16 05:45:45;;;;;;;9.23;4.03;;;;;;;18.81;52.93;101596.42;1769710;79;26126;-57
2022/06/16 05:48:13;;;;;;;18.48;3.62;;;;;;;18.82;53.21;101594.05;1733806;79;27466;-57
2022/06/16 05:50:42;;;;;;;16.73;3.75;;;;;;;18.85;53.45;101595.91;1758083;80;25892;-57
2022/06/16 05:53:11;;;;;;;15.20;3.12;;;;;;;18.93;53.86;101598.67;1731013;82;25753;-57
2022/06/16 05:55:40;;;;;;;11.50;3.45;;;;;;;19.00;53.89;101598.84;1688254;81;26130;-56
2022/06/16 05:58:07;;;;;;;10.95;3.15;;;;;;;19.08;54.28;101597.99;1701370;82;25896;-57
2022/06/16 06:00:35;;;;;;;13.25;3.17;;;;;;;19.11;53.89;101596.27;1707992;82;27578;-56
2022/06/16 06:03:04;;;;;;;10.05;2.98;;;;;;;19.16;53.89;101593.02;1696596;83;25789;-56
2022/06/16 06:05:33;;;;;;;12.53;2.87;;;;;;;19.22;53.93;101596.44;1696498;83;25892;-55
2022/06/16 06:16:25;;;;;;;14.33;1.70;;;;;;;19.34;51.74;101600.48;1697044;83;25854;-56
2022/06/16 06:18:55;;;;;;;8.88;1.92;;;;;;;19.40;51.46;101609.85;1697142;83;25848;-56
2022/06/16 06:24:12;;;;;;;12.33;2.55;;;;;;;19.46;51.73;101603.69;1684527;83;25730;-59
2022/06/16 06:26:39;;;;;;;11.85;2.00;;;;;;;19.45;51.40;101604.74;1753807;80;27452;-56
2022/06/16 06:29:07;;;;;;;2.72;1.07;;;;;;;19.46;51.20;101602.85;1762603;80;25793;-57
2022/06/16 06:31:34;;;;;;;6.50;1.87;;;;;;;19.48;50.58;101602.17;1771215;80;25680;-56
2022/06/16 06:34:01;;;;;;;6.78;1.72;;;;;;;19.53;49.40;101599.75;1762797;80;25482;-56
2022/06/16 06:36:28;;;;;;;4.85;1.30;;;;;;;19.56;48.75;101599.41;1754466;80;25867;-56
2022/06/16 06:38:55;;;;;;;12.37;2.12;;;;;;;19.61;47.41;101596.16;1754593;80;27538;-56
2022/06/16 06:41:22;;;;;;;8.25;1.80;;;;;;;19.67;47.65;101600.91;1755737;80;25810;-56
2022/06/16 06:43:49;;;;;;;19.55;1.72;;;;;;;19.71;47.95;101594.08;1764378;80;25831;-56
2022/06/16 06:46:16;;;;;;;6.97;1.47;;;;;;;19.80;46.63;101593.52;1774249;80;26254;-56
2022/06/16 06:48:44;;;;;;;9.53;1.70;;;;;;;19.85;47.26;101596.61;1760303;80;26547;-57
2022/06/16 06:51:11;;;;;;;5.83;1.40;;;;;;;19.89;46.92;101593.84;1779151;80;27616;-56
2022/06/16 06:53:38;;;;;;;10.40;1.75;;;;;;;19.94;45.24;101590.08;1769827;80;25770;-56
2022/06/16 06:56:06;;;;;;;4.10;1.50;;;;;;;19.99;46.09;101590.91;1760903;80;25807;-56
2022/06/16 06:58:33;;;;;;;15.60;1.50;;;;;;;20.05;46.05;101590.69;1775178;79;26094;-56
2022/06/16 07:01:01;;;;;;;5.80;1.30;;;;;;;20.05;45.38;101591.55;1770363;79;25770;-56
2022/06/16 07:03:30;;;;;;;6.42;1.15;;;;;;;20.07;44.98;101594.97;1759556;80;26854;-56
2022/06/16 07:05:56;;;;;;;3.30;1.42;;;;;;;20.12;45.14;101588.97;1758607;80;25530;-56
2022/06/16 07:08:24;;;;;;;7.22;1.40;;;;;;;20.20;45.20;101588.91;1755467;80;25783;-56
2022/06/16 07:10:50;;;;;;;7.62;1.42;;;;;;;20.29;45.85;101591.93;1776118;79;26112;-56
2022/06/16 07:13:17;;;;;;;9.85;1.82;;;;;;;20.43;45.27;101588.06;1757872;80;25842;-56
2022/06/16 07:15:44;;;;;;;12.60;1.60;;;;;;;20.56;44.93;101590.19;1771990;80;27471;-56
2022/06/16 07:18:11;;;;;;;6.40;1.52;;;;;;;20.72;44.73;101596.05;1767809;80;25831;-56
2022/06/16 07:20:38;;;;;;;9.65;1.55;;;;;;;20.87;44.21;101587.94;1754471;80;25814;-56
2022/06/16 07:23:06;;;;;;;8.25;1.80;;;;;;;21.01;43.78;101589.84;1758116;80;26235;-56
2022/06/16 07:25:33;;;;;;;13.30;1.70;;;;;;;21.18;43.70;101584.20;1764601;80;25449;-57
2022/06/16 07:28:00;;;;;;;10.53;1.17;;;;;;;21.36;43.63;101585.22;1751385;80;28427;-56
2022/06/16 07:30:28;;;;;;;10.98;1.55;;;;;;;21.50;43.48;101580.79;1756787;80;25783;-56
2022/06/16 07:32:55;;;;;;;5.83;1.45;;;;;;;21.61;41.33;101574.01;1755263;80;25834;-56
2022/06/16 07:35:23;;;;;;;6.40;1.70;;;;;;;21.73;41.78;101578.81;1767573;80;26162;-56
2022/06/16 07:37:51;;;;;;;6.97;1.80;;;;;;;21.82;41.40;101575.96;1756920;80;25447;-56
2022/06/16 07:40:20;;;;;;;8.08;1.50;;;;;;;21.92;41.13;101575.68;1765828;79;28304;-56
2022/06/16 07:42:49;;;;;;;9.83;1.22;;;;;;;22.10;40.73;101574.70;1754158;80;25959;-56
2022/06/16 07:45:16;;;;;;;8.28;1.75;;;;;;;22.26;40.06;101568.14;1771346;80;25842;-57
2022/06/16 07:47:43;;;;;;;5.25;1.55;;;;;;;22.43;40.05;101562.44;1748683;81;26926;-56
2022/06/16 07:50:12;;;;;;;8.85;1.37;;;;;;;22.54;40.00;101563.83;1755808;80;25915;-56
2022/06/16 07:52:39;;;;;;;4.45;1.55;;;;;;;22.62;39.15;101565.89;1752796;81;27451;-56
2022/06/16 07:55:09;;;;;;;6.50;2.40;;;;;;;22.70;39.11;101562.17;1756366;80;25748;-56
2022/06/16 07:57:45;;;;;;;7.20;1.52;;;;;;;22.79;39.31;101562.36;1776962;79;25663;-56
2022/06/16 08:00:18;;;;;;;12.18;1.47;;;;;;;22.88;39.21;101563.05;1755467;80;26131;-57
2022/06/16 08:02:44;;;;;;;10.65;1.62;;;;;;;23.02;38.91;101567.28;1767152;80;25795;-57
2022/06/16 08:05:12;;;;;;;7.05;2.17;;;;;;;23.11;38.73;101563.33;1753223;80;27716;-57
2022/06/16 08:07:41;;;;;;;10.88;1.92;;;;;;;23.22;38.16;101561.95;1759588;80;26103;-57
2022/06/16 08:10:13;;;;;;;9.48;2.40;;;;;;;23.32;37.88;101558.32;1753655;80;25835;-56
2022/06/16 08:12:41;;;;;;;16.52;1.75;;;;;;;23.42;37.51;101557.44;1767681;80;26037;-56
2022/06/16 08:15:10;;;;;;;6.42;1.55;;;;;;;23.53;37.56;101559.29;1758020;80;25810;-56
2022/06/16 08:17:41;;;;;;;5.40;1.57;;;;;;;23.61;37.61;101561.86;1754992;80;28343;-57
2022/06/16 08:20:09;;;;;;;8.45;1.70;;;;;;;23.70;37.62;101559.77;1769831;80;25686;-56
2022/06/16 08:22:37;;;;;;;7.65;1.67;;;;;;;23.83;37.00;101555.72;1769851;79;25845;-56
2022/06/16 08:25:07;;;;;;;10.50;1.60;;;;;;;23.98;36.58;101561.60;1760322;80;26257;-57
2022/06/16 08:27:37;;;;;;;12.28;1.75;;;;;;;24.12;35.83;101558.38;1763033;80;25933;-57
2022/06/16 08:30:09;;;;;;;12.70;1.77;;;;;;;24.10;35.85;101559.09;1778451;79;27480;-57
2022/06/16 08:32:36;;;;;;;8.27;1.50;;;;;;;24.09;35.95;101565.64;1755260;79;25771;-57
2022/06/16 08:35:05;;;;;;;9.63;1.92;;;;;;;24.18;35.97;101564.41;1767042;80;25947;-56
2022/06/16 08:37:32;;;;;;;9.58;1.35;;;;;;;24.33;36.10;101568.34;1778536;80;26074;-57
2022/06/16 08:40:01;;;;;;;6.37;1.70;;;;;;;24.47;34.82;101557.70;1768871;80;25748;-57
2022/06/16 08:42:45;;;;;;;12.40;1.95;;;;;;;24.56;35.34;101556.96;1762070;80;27400;-57
2022/06/16 08:45:26;;;;;;;9.53;1.30;;;;;;;24.62;34.67;101555.27;1755523;80;26374;-57
2022/06/16 08:48:21;;;;;;;10.30;1.77;;;;;;;24.55;35.03;101548.38;1758533;80;25749;-57
2022/06/16 08:50:55;;;;;;;6.67;2.10;;;;;;;24.65;34.99;101556.23;1757270;80;26255;-56
2022/06/16 08:53:30;;;;;;;9.10;1.60;;;;;;;24.72;34.96;101552.12;1757906;79;25771;-56
2022/06/16 08:56:23;;;;;;;15.00;1.90;;;;;;;24.79;34.24;101549.70;1777933;79;29644;-56
2022/06/16 08:59:05;;;;;;;8.20;2.05;;;;;;;24.84;34.57;101542.18;1756141;80;25812;-57
2022/06/16 09:01:44;;;;;;;12.82;2.08;;;;;;;24.95;35.02;101544.30;1720944;80;25823;-56
2022/06/16 09:04:25;;;;;;;14.80;2.75;;;;;;;25.23;35.03;101540.95;1766953;80;26128;-56
2022/06/16 09:07:21;;;;;;;7.83;1.50;;;;;;;25.53;34.47;101539.09;1758521;80;25802;-56
2022/06/16 09:10:18;;;;;;;8.33;1.45;;;;;;;25.70;34.24;101543.56;1766630;79;27321;-56
2022/06/16 09:13:13;;;;;;;2.83;1.40;;;;;;;25.87;33.92;101537.87;1760257;79;25760;-56
2022/06/16 09:16:37;;;;;;;5.10;1.50;;;;;;;26.18;33.27;101534.87;1741396;79;25841;-57
2022/06/16 09:19:23;;;;;;;14.93;2.83;;;;;;;26.43;32.80;101534.05;1754355;80;27153;-57
2022/06/16 09:22:11;;;;;;;13.30;5.15;;;;;;;26.54;32.52;101535.23;1753949;80;25761;-56
2022/06/16 09:24:49;;;;;;;7.45;3.42;;;;;;;26.39;32.25;101532.83;1758370;80;27977;-57
2022/06/16 09:27:28;;;;;;;10.05;2.10;;;;;;;26.32;32.80;101537.52;1692816;81;25808;-57
2022/06/16 09:30:10;;;;;;;2.98;1.50;;;;;;;26.31;32.38;101532.55;1752581;80;25795;-58
2022/06/16 09:33:00;;;;;;;7.75;2.17;;;;;;;26.29;33.06;101530.55;1755292;80;26064;-56
2022/06/16 09:35:38;;;;;;;6.83;1.67;;;;;;;26.26;32.54;101525.49;1756097;80;25780;-57
2022/06/16 09:38:34;;;;;;;6.50;1.60;;;;;;;26.24;32.38;101524.31;1781645;80;27447;-57
2022/06/16 09:44:02;;;;;;;8.10;2.02;;;;;;;25.99;31.95;101521.50;1675619;84;25946;-57
2022/06/16 09:46:33;;;;;;;4.55;1.50;;;;;;;25.76;32.54;101517.91;1738643;80;26265;-57
2022/06/16 09:49:06;;;;;;;5.83;1.55;;;;;;;25.96;32.02;101513.66;1759096;80;25488;-57
2022/06/16 09:51:49;;;;;;;4.03;1.60;;;;;;;25.96;31.39;101508.15;1754745;80;27669;-57
2022/06/16 09:54:30;;;;;;;4.17;1.60;;;;;;;25.96;31.39;101508.15;1761756;80;25484;-57
2022/06/16 09:57:08;;;;;;;9.30;3.25;;;;;;;25.89;31.28;101511.48;1752221;80;25810;-57
2022/06/16 10:00:00;;;;;;;11.10;2.47;;;;;;;25.81;31.54;101507.06;1754242;80;26100;-57
2022/06/16 10:02:35;;;;;;;7.12;1.70;;;;;;;26.39;31.51;101507.45;1760201;80;25731;-57
2022/06/16 10:05:05;;;;;;;5.00;1.57;;;;;;;27.37;30.28;101499.19;1764551;80;27405;-56
2022/06/16 10:07:57;;;;;;;3.22;1.30;;;;;;;28.08;28.43;101501.80;1752540;80;25526;-57
2022/06/16 10:10:44;;;;;;;10.30;1.70;;;;;;;28.77;28.36;101497.72;1772572;80;25808;-56
2022/06/16 10:13:43;;;;;;;5.85;2.25;;;;;;;29.64;27.39;101498.76;1754083;80;25979;-57
2022/06/16 10:16:15;;;;;;;6.50;2.02;;;;;;;29.88;27.26;101493.12;1774582;80;25722;-57
2022/06/16 10:18:43;;;;;;;14.40;1.20;;;;;;;29.86;25.98;101490.28;1760782;80;27520;-57
2022/06/16 10:21:13;;;;;;;4.53;1.50;;;;;;;29.34;25.79;101487.37;1756993;80;25783;-57
2022/06/16 10:23:48;;;;;;;6.65;1.40;;;;;;;28.63;26.83;101488.77;1768944;79;25761;-57
2022/06/16 10:26:15;;;;;;;7.25;1.98;;;;;;;28.28;27.79;101495.12;1754264;80;26900;-57
2022/06/16 10:29:14;;;;;;;5.87;2.20;;;;;;;29.17;27.41;101490.02;1764617;79;25697;-57
2022/06/16 10:31:48;;;;;;;3.55;1.30;;;;;;;29.95;26.52;101486.91;1756214;80;27651;-56
2022/06/16 10:34:29;;;;;;;5.45;1.80;;;;;;;29.43;25.82;101488.37;1754681;80;25498;-57
2022/06/16 10:37:20;;;;;;;11.97;1.90;;;;;;;28.75;26.05;101487.42;1760136;79;25810;-56
2022/06/16 10:40:14;;;;;;;2.75;1.22;;;;;;;28.30;27.80;101490.16;1764203;80;26493;-56
2022/06/16 10:42:51;;;;;;;10.38;1.30;;;;;;;28.39;27.67;101480.98;1754196;80;25744;-56
2022/06/16 10:45:35;;;;;;;6.28;1.60;;;;;;;28.35;27.59;101473.70;1757849;80;27551;-56
2022/06/16 10:48:14;;;;;;;6.50;1.42;;;;;;;28.31;28.07;101476.64;1760668;80;25887;-56
2022/06/16 10:51:12;;;;;;;9.45;1.90;;;;;;;28.30;28.43;101468.03;1763520;80;25862;-56
2022/06/16 10:53:45;;;;;;;5.37;1.45;;;;;;;29.32;27.20;101463.21;1758167;80;26115;-57
2022/06/16 10:56:19;;;;;;;7.97;1.30;;;;;;;30.46;25.97;101452.78;1725754;80;25771;-57
2022/06/16 10:59:08;;;;;;;5.35;1.20;;;;;;;31.60;25.33;101451.56;1758965;80;27536;-57
2022/06/16 11:02:00;;;;;;;8.63;1.15;;;;;;;32.77;23.25;101462.02;1754379;80;25870;-56
2022/06/16 11:04:38;;;;;;;3.37;1.10;;;;;;;33.73;20.93;101453.25;1752521;80;25790;-56
2022/06/16 11:07:10;;;;;;;2.75;0.95;;;;;;;33.95;20.91;101458.61;1746700;80;27024;-57
2022/06/16 11:09:37;;;;;;;2.20;1.07;;;;;;;34.36;18.79;101456.37;1722841;81;25857;-56
2022/06/16 11:12:17;;;;;;;8.08;1.90;;;;;;;34.90;18.70;101448.77;1733402;81;29636;-57
2022/06/16 11:14:50;;;;;;;13.18;1.45;;;;;;;35.45;19.09;101438.19;1727534;81;25464;-57
2022/06/16 11:17:42;;;;;;;2.83;1.10;;;;;;;36.01;17.22;101447.31;1743093;80;25757;-57
2022/06/16 11:20:14;;;;;;;5.62;1.12;;;;;;;35.48;16.87;101450.76;1756818;80;27043;-57
2022/06/16 11:22:46;;;;;;;2.98;0.98;;;;;;;35.94;17.11;101441.22;1761272;80;25955;-57
2022/06/16 11:25:36;;;;;;;4.78;1.00;;;;;;;36.42;17.06;101452.59;1750064;80;27604;-57
2022/06/16 11:28:14;;;;;;;4.25;0.98;;;;;;;36.97;16.17;101444.45;1722711;81;25743;-57
2022/06/16 11:30:49;;;;;;;3.52;1.25;;;;;;;37.67;16.54;101440.67;1747986;80;25927;-56
2022/06/16 11:36:41;;;;;;;4.92;0.93;;;;;;;37.79;15.50;101434.03;1781498;80;25874;-57
2022/06/16 11:40:03;;;;;;;2.87;1.50;;;;;;;38.48;14.74;101426.41;1776418;80;27589;-56
2022/06/16 11:42:59;;;;;;;5.22;0.80;;;;;;;38.91;15.21;101432.33;1708722;80;25883;-56
2022/06/16 11:45:57;;;;;;;3.12;1.02;;;;;;;39.21;13.55;101431.41;1768075;80;25716;-56
2022/06/16 11:49:02;;;;;;;1.50;1.00;;;;;;;38.60;13.74;101438.53;1759553;80;44313;-56
2022/06/16 11:51:46;;;;;;;7.78;1.10;;;;;;;38.43;13.66;101427.06;1768233;80;25861;-57
2022/06/16 11:54:41;;;;;;;8.18;1.12;;;;;;;38.64;14.23;101419.91;1741075;79;27633;-57
2022/06/16 11:57:28;;;;;;;3.25;1.15;;;;;;;39.35;14.46;101418.74;1786223;80;25733;-57
2022/06/16 12:00:24;;;;;;;5.72;1.02;;;;;;;40.01;13.41;101407.58;1758198;80;26128;-56
2022/06/16 12:03:29;;;;;;;4.05;1.20;;;;;;;40.02;13.68;101405.02;1787090;80;26173;-56
2022/06/16 12:06:16;;;;;;;4.95;1.10;;;;;;;38.47;14.15;101400.84;1785809;79;26448;-56
2022/06/16 12:09:23;;;;;;;6.50;1.00;;;;;;;36.87;15.24;101408.09;1786196;80;27637;-56
2022/06/16 12:12:23;;;;;;;2.92;1.02;;;;;;;37.28;15.15;101402.80;1785189;80;25801;-57
2022/06/16 12:15:18;;;;;;;1.98;0.88;;;;;;;38.40;14.11;101398.20;1786858;80;25792;-56
2022/06/16 12:18:09;;;;;;;4.97;1.10;;;;;;;38.65;12.76;101397.69;1784606;80;28214;-56
2022/06/16 12:21:12;;;;;;;6.37;0.98;;;;;;;38.31;13.04;101391.88;1787163;78;25884;-57
2022/06/16 12:23:57;;;;;;;8.05;1.00;;;;;;;37.47;13.53;101392.17;1786814;79;27438;-58
2022/06/16 12:26:56;;;;;;;4.20;1.12;;;;;;;36.56;13.97;101391.63;1786579;80;25841;-57